Time,TemperatureF,DewpointF,PressureIn,WindDirection,WindDirectionDegrees,WindSpeedMPH,WindSpeedGustMPH,Humidity,HourlyPrecipIn,Conditions,Clouds,dailyrainin,SolarRadiationWatts/m^2,SoftwareType,DateUTC
2013-02-11 00:00:00,38.0,18.6,30.18,ENE,68,4.0,8.0,45,-99.99,,,0.00,0.00,VWS V14.01,2013-02-11 05:00:00,
2013-02-11 00:05:00,38.0,19.1,30.18,SE,135,13.0,19.0,46,-99.99,,,0.00,0.00,VWS V14.01,2013-02-11 05:05:00,
2013-02-11 00:10:00,38.0,19.1,30.18,ESE,112,7.0,11.0,46,-99.99,,,0.00,0.00,VWS V14.01,2013-02-11 05:10:00,
2013-02-11 00:15:00,38.0,19.1,30.18,ESE,112,14.0,21.0,46,-99.99,,,0.00,0.00,VWS V14.01,2013-02-11 05:15:00,
2013-02-11 00:20:00,38.0,19.6,30.18,SE,135,9.0,15.0,47,-99.99,,,0.00,0.00,VWS V14.01,2013-02-11 05:20:00,
2013-02-11 00:25:00,38.0,19.1,30.18,ESE,112,11.0,18.0,46,-99.99,,,0.00,0.00,VWS V14.01,2013-02-11 05:25:00,
2013-02-11 00:30:00,38.0,19.6,30.18,ESE,112,10.0,12.0,47,-99.99,,,0.00,0.00,VWS V14.01,2013-02-11 05:30:00,
2013-02-11 00:35:00,38.0,19.6,30.17,SE,135,7.0,11.0,47,-99.99,,,0.00,0.00,VWS V14.01,2013-02-11 05:35:00,
2013-02-11 00:40:00,38.0,19.6,30.18,ENE,68,7.0,10.0,47,-99.99,,,0.00,0.00,VWS V14.01,2013-02-11 05:40:00,
2013-02-11 00:45:00,38.0,19.6,30.18,East,90,10.0,12.0,47,-99.99,,,0.00,0.00,VWS V14.01,2013-02-11 05:45:00,
2013-02-11 00:50:00,38.0,19.6,30.18,SSE,158,8.0,10.0,47,-99.99,,,0.00,0.00,VWS V14.01,2013-02-11 05:50:00,
2013-02-11 00:55:00,38.0,20.1,30.18,ESE,112,5.0,8.0,48,-99.99,,,0.00,0.00,VWS V14.01,2013-02-11 05:55:00,
2013-02-11 01:00:00,38.0,20.5,30.18,ESE,112,10.0,10.0,49,-99.99,,,0.00,0.00,VWS V14.01,2013-02-11 06:00:00,
2013-02-11 01:05:00,38.0,20.5,30.17,SE,135,13.0,13.0,49,-99.99,,,0.00,0.00,VWS V14.01,2013-02-11 06:05:00,
2013-02-11 01:10:00,38.0,21.5,30.17,SE,135,12.0,12.0,51,-99.99,,,0.00,0.00,VWS V14.01,2013-02-11 06:10:00,
2013-02-11 01:15:00,38.0,21.5,30.17,NE,45,6.0,10.0,51,-99.99,,,0.00,0.00,VWS V14.01,2013-02-11 06:15:00,
2013-02-11 01:20:00,38.0,22.4,30.17,East,90,9.0,14.0,53,-99.99,,,0.00,0.00,VWS V14.01,2013-02-11 06:20:00,
2013-02-11 01:25:00,38.0,22.4,30.17,ENE,68,8.0,10.0,53,-99.99,,,0.00,0.00,VWS V14.01,2013-02-11 06:25:00,
2013-02-11 01:30:00,38.0,22.9,30.17,SSE,158,7.0,11.0,54,-99.99,,,0.00,0.00,VWS V14.01,2013-02-11 06:30:00,
2013-02-11 01:35:00,37.0,22.8,30.17,SE,135,12.0,13.0,56,-99.99,,,0.00,0.00,VWS V14.01,2013-02-11 06:35:00,
2013-02-11 01:40:00,37.0,23.2,30.16,East,90,11.0,19.0,57,-99.99,,,0.00,0.00,VWS V14.01,2013-02-11 06:40:00,
2013-02-11 01:45:00,37.0,23.2,30.16,ESE,112,7.0,14.0,57,-99.99,,,0.00,0.00,VWS V14.01,2013-02-11 06:45:00,
2013-02-11 01:50:00,37.0,23.2,30.16,ESE,112,8.0,14.0,57,-99.99,,,0.00,0.00,VWS V14.01,2013-02-11 06:50:00,
2013-02-11 01:55:00,37.0,23.2,30.15,East,90,6.0,10.0,57,-99.99,,,0.00,0.00,VWS V14.01,2013-02-11 06:55:00,
2013-02-11 02:00:00,37.0,22.8,30.15,SSE,158,7.0,9.0,56,-99.99,,,0.00,0.00,VWS V14.01,2013-02-11 07:00:00,
2013-02-11 02:05:00,37.0,23.2,30.13,East,90,6.0,10.0,57,-99.99,,,0.00,0.00,VWS V14.01,2013-02-11 07:05:00,
2013-02-11 02:10:00,37.0,23.2,30.13,East,90,7.0,10.0,57,-99.99,,,0.00,0.00,VWS V14.01,2013-02-11 07:10:00,
2013-02-11 02:15:00,37.0,22.8,30.13,SE,135,4.0,8.0,56,-99.99,,,0.00,0.00,VWS V14.01,2013-02-11 07:15:00,
2013-02-11 02:20:00,37.0,23.2,30.13,ESE,112,5.0,6.0,57,-99.99,,,0.00,0.00,VWS V14.01,2013-02-11 07:20:00,
2013-02-11 02:25:00,38.0,24.1,30.13,ESE,112,5.0,9.0,57,-99.99,,,0.00,0.00,VWS V14.01,2013-02-11 07:25:00,
2013-02-11 02:30:00,38.0,24.1,30.13,SE,135,4.0,6.0,57,-99.99,,,0.00,0.00,VWS V14.01,2013-02-11 07:30:00,
2013-02-11 02:35:00,38.0,24.1,30.12,SE,135,4.0,6.0,57,-99.99,,,0.00,0.00,VWS V14.01,2013-02-11 07:35:00,
2013-02-11 02:40:00,38.0,23.7,30.12,ESE,112,10.0,13.0,56,-99.99,,,0.00,0.00,VWS V14.01,2013-02-11 07:40:00,
2013-02-11 02:45:00,38.0,23.7,30.12,ESE,112,5.0,5.0,56,-99.99,,,0.00,0.00,VWS V14.01,2013-02-11 07:45:00,
2013-02-11 02:50:00,38.0,23.7,30.11,ESE,112,9.0,13.0,56,-99.99,,,0.00,0.00,VWS V14.01,2013-02-11 07:50:00,
2013-02-11 02:55:00,38.0,23.7,30.11,ESE,112,7.0,11.0,56,-99.99,,,0.00,0.00,VWS V14.01,2013-02-11 07:55:00,
2013-02-11 03:00:00,38.0,23.7,30.10,ENE,68,5.0,13.0,56,-99.99,,,0.00,0.00,VWS V14.01,2013-02-11 08:00:00,
2013-02-11 03:05:00,38.0,23.7,30.10,SE,135,13.0,18.0,56,-99.99,,,0.00,0.00,VWS V14.01,2013-02-11 08:05:00,
2013-02-11 03:10:00,38.0,23.7,30.09,ESE,112,18.0,22.0,56,-99.99,,,0.00,0.00,VWS V14.01,2013-02-11 08:10:00,
2013-02-11 03:15:00,38.0,23.7,30.09,East,90,5.0,11.0,56,-99.99,,,0.00,0.00,VWS V14.01,2013-02-11 08:15:00,
2013-02-11 03:20:00,38.0,24.1,30.08,ESE,112,12.0,12.0,57,-99.99,,,0.00,0.00,VWS V14.01,2013-02-11 08:20:00,
2013-02-11 03:25:00,38.0,24.5,30.08,ESE,112,7.0,9.0,58,-99.99,,,0.00,0.00,VWS V14.01,2013-02-11 08:25:00,
2013-02-11 03:30:00,38.0,24.5,30.07,ESE,112,10.0,14.0,58,-99.99,,,0.00,0.00,VWS V14.01,2013-02-11 08:30:00,
2013-02-11 03:35:00,38.0,25.0,30.07,ESE,112,6.0,12.0,59,-99.99,,,0.00,0.00,VWS V14.01,2013-02-11 08:35:00,
2013-02-11 03:40:00,38.0,25.0,30.07,ESE,112,10.0,12.0,59,-99.99,,,0.00,0.00,VWS V14.01,2013-02-11 08:40:00,
2013-02-11 03:45:00,38.0,25.8,30.06,East,90,8.0,20.0,61,-99.99,,,0.00,0.00,VWS V14.01,2013-02-11 08:45:00,
2013-02-11 03:50:00,38.0,26.5,30.07,East,90,15.0,19.0,63,-99.99,,,0.00,0.00,VWS V14.01,2013-02-11 08:50:00,
2013-02-11 03:55:00,38.0,28.4,30.07,SE,135,12.0,19.0,68,-99.99,,,0.00,0.00,VWS V14.01,2013-02-11 08:55:00,
2013-02-11 04:00:00,37.0,28.5,30.07,SSE,158,10.0,13.0,71,-99.99,,,0.00,0.00,VWS V14.01,2013-02-11 09:00:00,
2013-02-11 04:05:00,37.0,29.5,30.07,ESE,112,6.0,18.0,74,-99.99,,,0.00,0.00,VWS V14.01,2013-02-11 09:05:00,
2013-02-11 04:10:00,36.0,29.2,30.06,ESE,112,7.0,16.0,76,-99.99,,,0.00,0.00,VWS V14.01,2013-02-11 09:10:00,
2013-02-11 04:15:00,36.0,29.8,30.06,ENE,68,7.0,12.0,78,-99.99,,,0.00,0.00,VWS V14.01,2013-02-11 09:15:00,
2013-02-11 04:20:00,36.0,30.1,30.06,ESE,112,7.0,10.0,79,-99.99,,,0.00,0.00,VWS V14.01,2013-02-11 09:20:00,
2013-02-11 04:25:00,36.0,30.4,30.06,ENE,68,5.0,13.0,80,-99.99,,,0.00,0.00,VWS V14.01,2013-02-11 09:25:00,
2013-02-11 04:30:00,36.0,30.8,30.06,East,90,8.0,13.0,81,-99.99,,,0.00,0.00,VWS V14.01,2013-02-11 09:30:00,
2013-02-11 04:35:00,36.0,31.0,30.05,East,90,7.0,11.0,82,-99.99,,,0.00,0.00,VWS V14.01,2013-02-11 09:35:00,
2013-02-11 04:40:00,36.0,31.4,30.05,ESE,112,6.0,11.0,83,-99.99,,,0.00,0.00,VWS V14.01,2013-02-11 09:40:00,
2013-02-11 04:45:00,36.0,31.6,30.05,East,90,5.0,7.0,84,-99.99,,,0.00,0.00,VWS V14.01,2013-02-11 09:45:00,
2013-02-11 04:50:00,35.0,31.2,30.05,ESE,112,9.0,10.0,86,-99.99,,,0.00,0.00,VWS V14.01,2013-02-11 09:50:00,
2013-02-11 04:55:00,35.0,31.8,30.05,ESE,112,7.0,10.0,88,-99.99,,,0.00,0.00,VWS V14.01,2013-02-11 09:55:00,
2013-02-11 05:00:00,35.0,32.1,30.04,ESE,112,6.0,6.0,89,-99.99,,,0.00,0.00,VWS V14.01,2013-02-11 10:00:00,
2013-02-11 05:05:00,35.0,32.4,30.04,ESE,112,4.0,11.0,90,-99.99,,,0.00,0.00,VWS V14.01,2013-02-11 10:05:00,
2013-02-11 05:10:00,35.0,32.6,30.04,East,90,4.0,9.0,91,-99.99,,,0.00,0.00,VWS V14.01,2013-02-11 10:10:00,
2013-02-11 05:15:00,35.0,33.2,30.04,SE,135,3.0,3.0,93,-99.99,,,0.00,0.00,VWS V14.01,2013-02-11 10:15:00,
2013-02-11 05:20:00,35.0,33.2,30.03,ENE,68,5.0,6.0,93,-99.99,,,0.00,0.00,VWS V14.01,2013-02-11 10:20:00,
2013-02-11 05:25:00,35.0,33.5,30.03,ESE,112,5.0,6.0,94,-99.99,,,0.01,0.00,VWS V14.01,2013-02-11 10:25:00,
2013-02-11 05:30:00,35.0,33.7,30.02,ESE,112,6.0,8.0,95,-99.99,,,0.01,0.00,VWS V14.01,2013-02-11 10:30:00,
2013-02-11 05:35:00,35.0,34.0,30.03,ESE,112,7.0,10.0,96,-99.99,,,0.02,0.00,VWS V14.01,2013-02-11 10:35:00,
2013-02-11 05:40:00,35.0,34.0,30.03,ESE,112,5.0,8.0,96,-99.99,,,0.02,0.00,VWS V14.01,2013-02-11 10:40:00,
2013-02-11 05:45:00,35.0,34.2,30.02,ESE,112,5.0,9.0,97,-99.99,,,0.03,0.00,VWS V14.01,2013-02-11 10:45:00,
2013-02-11 05:50:00,35.0,34.2,30.02,ENE,68,4.0,5.0,97,-99.99,,,0.04,0.00,VWS V14.01,2013-02-11 10:50:00,
2013-02-11 05:55:00,35.0,34.2,30.01,NE,45,2.0,3.0,97,-99.99,,,0.04,0.00,VWS V14.01,2013-02-11 10:55:00,
2013-02-11 06:00:00,35.0,34.5,30.01,NNE,22,2.0,3.0,98,-99.99,,,0.04,0.00,VWS V14.01,2013-02-11 11:00:00,
2013-02-11 06:05:00,35.0,34.5,30.01,NNW,338,2.0,4.0,98,-99.99,,,0.04,0.00,VWS V14.01,2013-02-11 11:05:00,
2013-02-11 06:10:00,35.0,34.5,30.01,NNE,22,4.0,5.0,98,-99.99,,,0.05,0.00,VWS V14.01,2013-02-11 11:10:00,
2013-02-11 06:15:00,35.0,34.8,30.00,NNE,22,5.0,5.0,99,-99.99,,,0.05,0.00,VWS V14.01,2013-02-11 11:15:00,
2013-02-11 06:20:00,35.0,34.8,29.99,ENE,68,3.0,6.0,99,-99.99,,,0.05,0.00,VWS V14.01,2013-02-11 11:20:00,
2013-02-11 06:25:00,35.0,35.0,29.99,ENE,68,1.0,5.0,100,-99.99,,,0.06,0.00,VWS V14.01,2013-02-11 11:25:00,
2013-02-11 06:30:00,35.0,34.8,29.99,ENE,68,4.0,8.0,99,-99.99,,,0.06,0.00,VWS V14.01,2013-02-11 11:30:00,
2013-02-11 06:35:00,35.0,34.8,29.99,ENE,68,4.0,6.0,99,-99.99,,,0.06,0.00,VWS V14.01,2013-02-11 11:35:00,
2013-02-11 06:40:00,36.0,35.8,29.99,ESE,112,3.0,3.0,99,-99.99,,,0.06,0.00,VWS V14.01,2013-02-11 11:40:00,
2013-02-11 06:45:00,36.0,35.8,29.99,South,180,5.0,5.0,99,-99.99,,,0.06,0.00,VWS V14.01,2013-02-11 11:45:00,
2013-02-11 06:50:00,36.0,35.8,29.98,ESE,112,6.0,7.0,99,-99.99,,,0.06,0.00,VWS V14.01,2013-02-11 11:50:00,
2013-02-11 06:55:00,36.0,35.8,29.98,ESE,112,5.0,6.0,99,-99.99,,,0.06,0.00,VWS V14.01,2013-02-11 11:55:00,
2013-02-11 07:00:00,36.0,35.8,29.98,SSE,158,3.0,5.0,99,-99.99,,,0.06,0.00,VWS V14.01,2013-02-11 12:00:00,
2013-02-11 07:05:00,36.0,36.0,29.98,SE,135,5.0,5.0,100,-99.99,,,0.06,0.00,VWS V14.01,2013-02-11 12:05:00,
2013-02-11 07:10:00,36.0,36.0,29.98,SE,135,4.0,6.0,100,-99.99,,,0.07,0.00,VWS V14.01,2013-02-11 12:10:00,
2013-02-11 07:15:00,36.0,36.0,29.98,SSE,158,8.0,8.0,100,-99.99,,,0.07,0.00,VWS V14.01,2013-02-11 12:15:00,
2013-02-11 07:20:00,36.0,36.0,29.98,SE,135,4.0,5.0,100,-99.99,,,0.07,0.00,VWS V14.01,2013-02-11 12:20:00,
2013-02-11 07:25:00,36.0,36.0,29.98,SSE,158,6.0,6.0,100,-99.99,,,0.07,0.00,VWS V14.01,2013-02-11 12:25:00,
2013-02-11 07:30:00,36.0,36.0,29.97,ESE,112,4.0,6.0,100,-99.99,,,0.07,0.00,VWS V14.01,2013-02-11 12:30:00,
2013-02-11 07:35:00,36.0,36.0,29.97,SSE,158,2.0,3.0,100,-99.99,,,0.07,0.00,VWS V14.01,2013-02-11 12:35:00,
2013-02-11 07:40:00,36.0,36.0,29.97,SSE,158,4.0,6.0,100,-99.99,,,0.07,0.00,VWS V14.01,2013-02-11 12:40:00,
2013-02-11 07:45:00,36.0,36.0,29.97,South,180,4.0,4.0,100,-99.99,,,0.07,0.00,VWS V14.01,2013-02-11 12:45:00,
2013-02-11 07:50:00,36.0,36.0,29.97,SSE,158,2.0,3.0,100,-99.99,,,0.07,0.00,VWS V14.01,2013-02-11 12:50:00,
2013-02-11 07:55:00,36.0,36.0,29.97,South,180,2.0,4.0,100,-99.99,,,0.07,0.00,VWS V14.01,2013-02-11 12:55:00,
2013-02-11 08:00:00,37.0,37.0,29.97,South,180,2.0,2.0,100,-99.99,,,0.07,10.00,VWS V14.01,2013-02-11 13:00:00,
2013-02-11 08:05:00,37.0,37.0,29.96,SE,135,3.0,4.0,100,-99.99,,,0.07,10.00,VWS V14.01,2013-02-11 13:05:00,
2013-02-11 08:10:00,37.0,37.0,29.96,SSE,158,4.0,4.0,100,-99.99,,,0.07,20.00,VWS V14.01,2013-02-11 13:10:00,
2013-02-11 08:15:00,37.0,37.0,29.97,SSE,158,5.0,6.0,100,-99.99,,,0.07,20.00,VWS V14.01,2013-02-11 13:15:00,
2013-02-11 08:20:00,37.0,36.8,29.96,ENE,68,6.0,7.0,99,-99.99,,,0.07,20.00,VWS V14.01,2013-02-11 13:20:00,
2013-02-11 08:25:00,37.0,36.8,29.96,SSE,158,6.0,7.0,99,-99.99,,,0.07,20.00,VWS V14.01,2013-02-11 13:25:00,
2013-02-11 08:30:00,37.0,36.8,29.95,ESE,112,3.0,8.0,99,-99.99,,,0.07,10.00,VWS V14.01,2013-02-11 13:30:00,
2013-02-11 08:35:00,37.0,36.5,29.95,SSE,158,4.0,4.0,98,-99.99,,,0.07,10.00,VWS V14.01,2013-02-11 13:35:00,
2013-02-11 08:40:00,37.0,36.5,29.95,South,180,3.0,4.0,98,-99.99,,,0.07,10.00,VWS V14.01,2013-02-11 13:40:00,
2013-02-11 08:45:00,37.0,36.5,29.93,NE,45,6.0,8.0,98,-99.99,,,0.07,20.00,VWS V14.01,2013-02-11 13:45:00,
2013-02-11 08:50:00,37.0,36.5,29.94,SE,135,4.0,9.0,98,-99.99,,,0.07,20.00,VWS V14.01,2013-02-11 13:50:00,
2013-02-11 08:55:00,37.0,36.5,29.94,SE,135,4.0,9.0,98,-99.99,,,0.07,30.00,VWS V14.01,2013-02-11 13:55:00,
2013-02-11 09:00:00,37.0,36.5,29.94,ESE,112,8.0,13.0,98,-99.99,,,0.07,20.00,VWS V14.01,2013-02-11 14:00:00,
2013-02-11 09:05:00,37.0,36.5,29.93,ESE,112,10.0,13.0,98,-99.99,,,0.07,30.00,VWS V14.01,2013-02-11 14:05:00,
2013-02-11 09:10:00,37.0,36.5,29.93,SE,135,9.0,9.0,98,-99.99,,,0.07,20.00,VWS V14.01,2013-02-11 14:10:00,
2013-02-11 09:15:00,37.0,36.5,29.93,SSE,158,7.0,7.0,98,-99.99,,,0.07,30.00,VWS V14.01,2013-02-11 14:15:00,
2013-02-11 09:20:00,37.0,36.5,29.93,SSE,158,7.0,12.0,98,-99.99,,,0.07,30.00,VWS V14.01,2013-02-11 14:20:00,
2013-02-11 09:25:00,38.0,37.5,29.91,ENE,68,5.0,7.0,98,-99.99,,,0.07,40.00,VWS V14.01,2013-02-11 14:25:00,
2013-02-11 09:30:00,37.0,36.5,29.92,SE,135,6.0,8.0,98,-99.99,,,0.07,20.00,VWS V14.01,2013-02-11 14:30:00,
2013-02-11 09:35:00,37.0,36.5,29.92,ENE,68,2.0,2.0,98,-99.99,,,0.07,20.00,VWS V14.01,2013-02-11 14:35:00,
2013-02-11 09:40:00,37.0,36.5,29.91,ESE,112,7.0,10.0,98,-99.99,,,0.07,40.00,VWS V14.01,2013-02-11 14:40:00,
2013-02-11 09:45:00,38.0,37.5,29.92,SE,135,4.0,6.0,98,-99.99,,,0.07,30.00,VWS V14.01,2013-02-11 14:45:00,
2013-02-11 09:50:00,38.0,37.5,29.90,ESE,112,7.0,8.0,98,-99.99,,,0.07,70.00,VWS V14.01,2013-02-11 14:50:00,
2013-02-11 09:55:00,38.0,37.5,29.90,South,180,6.0,7.0,98,-99.99,,,0.07,60.00,VWS V14.01,2013-02-11 14:55:00,
2013-02-11 10:00:00,38.0,37.5,29.89,ESE,112,4.0,5.0,98,-99.99,,,0.07,70.00,VWS V14.01,2013-02-11 15:00:00,
2013-02-11 10:05:00,38.0,37.2,29.89,ESE,112,7.0,10.0,97,-99.99,,,0.07,80.00,VWS V14.01,2013-02-11 15:05:00,
2013-02-11 10:10:00,38.0,37.2,29.90,South,180,6.0,8.0,97,-99.99,,,0.07,60.00,VWS V14.01,2013-02-11 15:10:00,
2013-02-11 10:15:00,38.0,37.2,29.90,SE,135,5.0,5.0,97,-99.99,,,0.07,80.00,VWS V14.01,2013-02-11 15:15:00,
2013-02-11 10:20:00,38.0,37.2,29.91,SSE,158,8.0,11.0,97,-99.99,,,0.07,60.00,VWS V14.01,2013-02-11 15:20:00,
2013-02-11 10:25:00,38.0,37.2,29.90,South,180,5.0,7.0,97,-99.99,,,0.07,60.00,VWS V14.01,2013-02-11 15:25:00,
2013-02-11 10:30:00,38.0,37.2,29.90,South,180,3.0,3.0,97,-99.99,,,0.07,60.00,VWS V14.01,2013-02-11 15:30:00,
2013-02-11 10:35:00,38.0,37.5,29.89,SE,135,2.0,4.0,98,-99.99,,,0.07,80.00,VWS V14.01,2013-02-11 15:35:00,
2013-02-11 10:40:00,39.0,38.5,29.88,ENE,68,1.0,2.0,98,-99.99,,,0.07,90.00,VWS V14.01,2013-02-11 15:40:00,
2013-02-11 10:45:00,39.0,38.2,29.88,ESE,112,4.0,4.0,97,-99.99,,,0.07,80.00,VWS V14.01,2013-02-11 15:45:00,
2013-02-11 10:50:00,39.0,38.2,29.88,ENE,68,3.0,3.0,97,-99.99,,,0.07,80.00,VWS V14.01,2013-02-11 15:50:00,
2013-02-11 10:55:00,39.0,38.2,29.87,ESE,112,5.0,5.0,97,-99.99,,,0.07,90.00,VWS V14.01,2013-02-11 15:55:00,
2013-02-11 11:00:00,39.0,38.2,29.88,South,180,4.0,5.0,97,-99.99,,,0.07,90.00,VWS V14.01,2013-02-11 16:00:00,
2013-02-11 11:05:00,39.0,38.2,29.88,SSE,158,4.0,5.0,97,-99.99,,,0.07,90.00,VWS V14.01,2013-02-11 16:05:00,
2013-02-11 11:10:00,39.0,38.0,29.88,SE,135,2.0,4.0,96,-99.99,,,0.07,80.00,VWS V14.01,2013-02-11 16:10:00,
2013-02-11 11:15:00,39.0,38.2,29.87,SSE,158,3.0,4.0,97,-99.99,,,0.07,100.00,VWS V14.01,2013-02-11 16:15:00,
2013-02-11 11:20:00,39.0,38.2,29.86,East,90,4.0,4.0,97,-99.99,,,0.07,110.00,VWS V14.01,2013-02-11 16:20:00,
2013-02-11 11:25:00,39.0,38.2,29.86,NE,45,2.0,4.0,97,-99.99,,,0.07,100.00,VWS V14.01,2013-02-11 16:25:00,
2013-02-11 11:30:00,40.0,39.2,29.85,East,90,1.0,2.0,97,-99.99,,,0.07,100.00,VWS V14.01,2013-02-11 16:30:00,
2013-02-11 11:35:00,40.0,39.0,29.85,East,90,2.0,3.0,96,-99.99,,,0.07,100.00,VWS V14.01,2013-02-11 16:35:00,
2013-02-11 11:40:00,40.0,39.0,29.85,SE,135,3.0,3.0,96,-99.99,,,0.07,100.00,VWS V14.01,2013-02-11 16:40:00,
2013-02-11 11:45:00,40.0,38.7,29.85,ESE,112,2.0,2.0,95,-99.99,,,0.07,90.00,VWS V14.01,2013-02-11 16:45:00,
2013-02-11 11:50:00,40.0,38.7,29.83,SE,135,3.0,4.0,95,-99.99,,,0.07,120.00,VWS V14.01,2013-02-11 16:50:00,
2013-02-11 11:55:00,40.0,38.7,29.83,ESE,112,2.0,2.0,95,-99.99,,,0.07,110.00,VWS V14.01,2013-02-11 16:55:00,
2013-02-11 12:00:00,40.0,38.7,29.82,SE,135,2.0,3.0,95,-99.99,,,0.07,110.00,VWS V14.01,2013-02-11 17:00:00,
2013-02-11 12:05:00,41.0,39.7,29.82,ESE,112,2.0,3.0,95,-99.99,,,0.07,100.00,VWS V14.01,2013-02-11 17:05:00,
2013-02-11 12:10:00,41.0,39.7,29.82,ENE,68,2.0,4.0,95,-99.99,,,0.07,100.00,VWS V14.01,2013-02-11 17:10:00,
2013-02-11 12:15:00,41.0,39.4,29.81,North,0,1.0,2.0,94,-99.99,,,0.07,100.00,VWS V14.01,2013-02-11 17:15:00,
2013-02-11 12:20:00,41.0,39.4,29.81,ESE,112,1.0,1.0,94,-99.99,,,0.07,80.00,VWS V14.01,2013-02-11 17:20:00,
2013-02-11 12:25:00,41.0,39.7,29.81,WNW,292,2.0,2.0,95,-99.99,,,0.07,80.00,VWS V14.01,2013-02-11 17:25:00,
2013-02-11 12:30:00,41.0,39.4,29.80,NE,45,1.0,3.0,94,-99.99,,,0.07,80.00,VWS V14.01,2013-02-11 17:30:00,
2013-02-11 12:35:00,41.0,39.4,29.79,NNE,22,1.0,2.0,94,-99.99,,,0.07,90.00,VWS V14.01,2013-02-11 17:35:00,
2013-02-11 12:40:00,42.0,40.4,29.79,SE,135,1.0,1.0,94,-99.99,,,0.07,90.00,VWS V14.01,2013-02-11 17:40:00,
2013-02-11 12:45:00,42.0,40.4,29.79,ESE,112,1.0,4.0,94,-99.99,,,0.07,80.00,VWS V14.01,2013-02-11 17:45:00,
2013-02-11 12:50:00,42.0,40.1,29.79,ENE,68,3.0,3.0,93,-99.99,,,0.07,80.00,VWS V14.01,2013-02-11 17:50:00,
2013-02-11 12:55:00,42.0,40.1,29.78,ESE,112,3.0,4.0,93,-99.99,,,0.07,90.00,VWS V14.01,2013-02-11 17:55:00,
2013-02-11 13:00:00,42.0,40.1,29.78,ENE,68,3.0,4.0,93,-99.99,,,0.07,110.00,VWS V14.01,2013-02-11 18:00:00,
2013-02-11 13:05:00,42.0,40.1,29.78,East,90,3.0,3.0,93,-99.99,,,0.07,110.00,VWS V14.01,2013-02-11 18:05:00,
2013-02-11 13:10:00,42.0,40.1,29.77,NE,45,2.0,4.0,93,-99.99,,,0.07,100.00,VWS V14.01,2013-02-11 18:10:00,
2013-02-11 13:15:00,41.0,39.1,29.77,NE,45,4.0,5.0,93,-99.99,,,0.07,110.00,VWS V14.01,2013-02-11 18:15:00,
2013-02-11 13:20:00,41.0,39.1,29.77,NNE,22,2.0,3.0,93,-99.99,,,0.07,100.00,VWS V14.01,2013-02-11 18:20:00,
2013-02-11 13:25:00,41.0,39.1,29.76,NE,45,3.0,4.0,93,-99.99,,,0.07,120.00,VWS V14.01,2013-02-11 18:25:00,
2013-02-11 13:30:00,41.0,39.1,29.76,NE,45,4.0,4.0,93,-99.99,,,0.07,130.00,VWS V14.01,2013-02-11 18:30:00,
2013-02-11 13:35:00,41.0,39.4,29.76,NE,45,3.0,5.0,94,-99.99,,,0.07,120.00,VWS V14.01,2013-02-11 18:35:00,
2013-02-11 13:40:00,41.0,39.4,29.75,NE,45,3.0,5.0,94,-99.99,,,0.07,130.00,VWS V14.01,2013-02-11 18:40:00,
2013-02-11 13:45:00,42.0,40.4,29.74,ENE,68,2.0,2.0,94,-99.99,,,0.07,170.00,VWS V14.01,2013-02-11 18:45:00,
2013-02-11 13:50:00,42.0,40.4,29.74,NE,45,4.0,5.0,94,-99.99,,,0.07,150.00,VWS V14.01,2013-02-11 18:50:00,
2013-02-11 13:55:00,42.0,40.4,29.73,NNE,22,5.0,7.0,94,-99.99,,,0.07,180.00,VWS V14.01,2013-02-11 18:55:00,
2013-02-11 14:00:00,42.0,40.4,29.73,ESE,112,6.0,8.0,94,-99.99,,,0.07,170.00,VWS V14.01,2013-02-11 19:00:00,
2013-02-11 14:05:00,42.0,40.4,29.72,NE,45,4.0,5.0,94,-99.99,,,0.07,140.00,VWS V14.01,2013-02-11 19:05:00,
2013-02-11 14:10:00,43.0,41.4,29.73,South,180,2.0,4.0,94,-99.99,,,0.07,110.00,VWS V14.01,2013-02-11 19:10:00,
2013-02-11 14:15:00,43.0,41.4,29.73,SSW,202,4.0,4.0,94,-99.99,,,0.07,120.00,VWS V14.01,2013-02-11 19:15:00,
2013-02-11 14:20:00,43.0,41.4,29.72,SSW,202,4.0,4.0,94,-99.99,,,0.07,100.00,VWS V14.01,2013-02-11 19:20:00,
2013-02-11 14:25:00,43.0,41.1,29.72,SW,225,4.0,6.0,93,-99.99,,,0.07,100.00,VWS V14.01,2013-02-11 19:25:00,
2013-02-11 14:30:00,43.0,41.1,29.72,WSW,248,7.0,7.0,93,-99.99,,,0.07,30.00,VWS V14.01,2013-02-11 19:30:00,
2013-02-11 14:35:00,43.0,41.4,29.72,West,270,5.0,5.0,94,-99.99,,,0.07,70.00,VWS V14.01,2013-02-11 19:35:00,
2013-02-11 14:40:00,42.0,40.4,29.72,WSW,248,5.0,5.0,94,-99.99,,,0.07,30.00,VWS V14.01,2013-02-11 19:40:00,
2013-02-11 14:45:00,42.0,40.4,29.72,WSW,248,7.0,7.0,94,-99.99,,,0.07,70.00,VWS V14.01,2013-02-11 19:45:00,
2013-02-11 14:50:00,42.0,40.4,29.72,WSW,248,7.0,7.0,94,-99.99,,,0.07,70.00,VWS V14.01,2013-02-11 19:50:00,
2013-02-11 14:55:00,42.0,40.7,29.72,WSW,248,3.0,4.0,95,-99.99,,,0.07,80.00,VWS V14.01,2013-02-11 19:55:00,
2013-02-11 15:00:00,43.0,41.7,29.71,West,270,2.0,2.0,95,-99.99,,,0.07,60.00,VWS V14.01,2013-02-11 20:00:00,
2013-02-11 15:05:00,43.0,41.4,29.71,WSW,248,3.0,4.0,94,-99.99,,,0.07,70.00,VWS V14.01,2013-02-11 20:05:00,
2013-02-11 15:10:00,43.0,41.1,29.71,WSW,248,3.0,3.0,93,-99.99,,,0.07,30.00,VWS V14.01,2013-02-11 20:10:00,
2013-02-11 15:15:00,43.0,41.1,29.70,West,270,3.0,3.0,93,-99.99,,,0.07,100.00,VWS V14.01,2013-02-11 20:15:00,
2013-02-11 15:20:00,43.0,41.4,29.70,WSW,248,3.0,4.0,94,-99.99,,,0.07,80.00,VWS V14.01,2013-02-11 20:20:00,
2013-02-11 15:25:00,43.0,41.4,29.70,SW,225,1.0,2.0,94,-99.99,,,0.07,70.00,VWS V14.01,2013-02-11 20:25:00,
2013-02-11 15:30:00,43.0,41.4,29.70,SW,225,3.0,3.0,94,-99.99,,,0.07,60.00,VWS V14.01,2013-02-11 20:30:00,
2013-02-11 15:35:00,43.0,41.4,29.70,ESE,112,3.0,3.0,94,-99.99,,,0.07,60.00,VWS V14.01,2013-02-11 20:35:00,
2013-02-11 15:40:00,43.0,41.4,29.70,SSW,202,2.0,3.0,94,-99.99,,,0.07,50.00,VWS V14.01,2013-02-11 20:40:00,
2013-02-11 15:45:00,43.0,41.1,29.69,SW,225,2.0,2.0,93,-99.99,,,0.07,50.00,VWS V14.01,2013-02-11 20:45:00,
2013-02-11 15:50:00,43.0,41.1,29.69,WSW,248,1.0,1.0,93,-99.99,,,0.07,50.00,VWS V14.01,2013-02-11 20:50:00,
2013-02-11 15:55:00,43.0,41.1,29.69,WSW,248,2.0,2.0,93,-99.99,,,0.07,50.00,VWS V14.01,2013-02-11 20:55:00,
2013-02-11 16:00:00,43.0,41.1,29.69,West,270,1.0,2.0,93,-99.99,,,0.07,40.00,VWS V14.01,2013-02-11 21:00:00,
2013-02-11 16:05:00,44.0,42.1,29.68,SSW,202,1.0,1.0,93,-99.99,,,0.07,20.00,VWS V14.01,2013-02-11 21:05:00,
2013-02-11 16:10:00,43.0,41.1,29.68,SSE,158,2.0,2.0,93,-99.99,,,0.07,30.00,VWS V14.01,2013-02-11 21:10:00,
2013-02-11 16:15:00,43.0,41.1,29.68,SSW,202,1.0,2.0,93,-99.99,,,0.07,50.00,VWS V14.01,2013-02-11 21:15:00,
2013-02-11 16:20:00,43.0,41.1,29.68,WSW,248,2.0,2.0,93,-99.99,,,0.07,40.00,VWS V14.01,2013-02-11 21:20:00,
2013-02-11 16:25:00,43.0,41.1,29.68,WSW,248,1.0,1.0,93,-99.99,,,0.07,30.00,VWS V14.01,2013-02-11 21:25:00,
2013-02-11 16:30:00,43.0,41.1,29.68,WNW,292,1.0,1.0,93,-99.99,,,0.07,20.00,VWS V14.01,2013-02-11 21:30:00,
2013-02-11 16:35:00,43.0,41.1,29.68,WSW,248,2.0,2.0,93,-99.99,,,0.07,20.00,VWS V14.01,2013-02-11 21:35:00,
2013-02-11 16:40:00,43.0,41.1,29.68,North,0,1.0,1.0,93,-99.99,,,0.07,10.00,VWS V14.01,2013-02-11 21:40:00,
2013-02-11 16:45:00,43.0,41.1,29.68,NE,45,3.0,3.0,93,-99.99,,,0.07,20.00,VWS V14.01,2013-02-11 21:45:00,
2013-02-11 16:50:00,43.0,41.1,29.67,NNW,338,2.0,2.0,93,-99.99,,,0.07,20.00,VWS V14.01,2013-02-11 21:50:00,
2013-02-11 16:55:00,43.0,41.1,29.67,ESE,112,2.0,2.0,93,-99.99,,,0.07,20.00,VWS V14.01,2013-02-11 21:55:00,
2013-02-11 17:00:00,43.0,41.1,29.67,SE,135,1.0,1.0,93,-99.99,,,0.07,10.00,VWS V14.01,2013-02-11 22:00:00,
2013-02-11 17:05:00,43.0,41.1,29.66,East,90,2.0,2.0,93,-99.99,,,0.07,10.00,VWS V14.01,2013-02-11 22:05:00,
2013-02-11 17:10:00,43.0,41.1,29.66,ENE,68,2.0,2.0,93,-99.99,,,0.07,10.00,VWS V14.01,2013-02-11 22:10:00,
2013-02-11 17:15:00,43.0,41.1,29.66,WNW,292,2.0,3.0,93,-99.99,,,0.07,10.00,VWS V14.01,2013-02-11 22:15:00,
2013-02-11 17:20:00,43.0,41.1,29.66,WSW,248,3.0,3.0,93,-99.99,,,0.07,10.00,VWS V14.01,2013-02-11 22:20:00,
2013-02-11 17:25:00,43.0,41.1,29.66,WSW,248,3.0,3.0,93,-99.99,,,0.07,0.00,VWS V14.01,2013-02-11 22:25:00,
2013-02-11 17:30:00,43.0,41.1,29.66,WSW,248,1.0,2.0,93,-99.99,,,0.07,0.00,VWS V14.01,2013-02-11 22:30:00,
2013-02-11 17:35:00,43.0,41.1,29.66,WSW,248,1.0,1.0,93,-99.99,,,0.07,0.00,VWS V14.01,2013-02-11 22:35:00,
2013-02-11 17:40:00,43.0,41.1,29.66,NNW,338,1.0,1.0,93,-99.99,,,0.07,0.00,VWS V14.01,2013-02-11 22:40:00,
2013-02-11 17:45:00,43.0,41.1,29.66,SSE,158,1.0,2.0,93,-99.99,,,0.07,0.00,VWS V14.01,2013-02-11 22:45:00,
2013-02-11 17:50:00,43.0,41.1,29.66,SW,225,3.0,3.0,93,-99.99,,,0.07,0.00,VWS V14.01,2013-02-11 22:50:00,
2013-02-11 17:55:00,43.0,41.1,29.66,WSW,248,2.0,2.0,93,-99.99,,,0.07,0.00,VWS V14.01,2013-02-11 22:55:00,
2013-02-11 18:00:00,43.0,41.1,29.66,SW,225,1.0,1.0,93,-99.99,,,0.07,0.00,VWS V14.01,2013-02-11 23:00:00,
2013-02-11 18:05:00,42.0,40.1,29.66,SW,225,2.0,2.0,93,-99.99,,,0.07,0.00,VWS V14.01,2013-02-11 23:05:00,
2013-02-11 18:10:00,42.0,40.1,29.66,ESE,112,3.0,3.0,93,-99.99,,,0.07,0.00,VWS V14.01,2013-02-11 23:10:00,
2013-02-11 18:15:00,42.0,40.4,29.66,East,90,2.0,2.0,94,-99.99,,,0.07,0.00,VWS V14.01,2013-02-11 23:15:00,
2013-02-11 18:20:00,42.0,40.4,29.66,ENE,68,2.0,3.0,94,-99.99,,,0.07,0.00,VWS V14.01,2013-02-11 23:20:00,
2013-02-11 18:25:00,41.0,39.4,29.66,NE,45,2.0,2.0,94,-99.99,,,0.07,0.00,VWS V14.01,2013-02-11 23:25:00,
2013-02-11 18:30:00,41.0,39.7,29.66,WNW,292,3.0,4.0,95,-99.99,,,0.07,0.00,VWS V14.01,2013-02-11 23:30:00,
2013-02-11 18:35:00,42.0,40.7,29.67,WNW,292,0.0,1.0,95,-99.99,,,0.07,0.00,VWS V14.01,2013-02-11 23:35:00,
2013-02-11 18:40:00,42.0,40.7,29.67,ESE,112,1.0,1.0,95,-99.99,,,0.07,0.00,VWS V14.01,2013-02-11 23:40:00,
2013-02-11 18:45:00,42.0,40.7,29.67,WSW,248,4.0,4.0,95,-99.99,,,0.07,0.00,VWS V14.01,2013-02-11 23:45:00,
2013-02-11 18:50:00,42.0,40.7,29.67,SE,135,2.0,2.0,95,-99.99,,,0.07,0.00,VWS V14.01,2013-02-11 23:50:00,
2013-02-11 18:55:00,42.0,40.7,29.67,West,270,1.0,3.0,95,-99.99,,,0.07,0.00,VWS V14.01,2013-02-11 23:55:00,
2013-02-11 19:00:00,42.0,40.7,29.67,SW,225,1.0,2.0,95,-99.99,,,0.07,0.00,VWS V14.01,2013-02-12 00:00:00,
2013-02-11 19:05:00,42.0,40.7,29.67,ESE,112,2.0,3.0,95,-99.99,,,0.07,0.00,VWS V14.01,2013-02-12 00:05:00,
2013-02-11 19:10:00,42.0,40.7,29.67,ESE,112,3.0,3.0,95,-99.99,,,0.07,0.00,VWS V14.01,2013-02-12 00:10:00,
2013-02-11 19:15:00,41.0,39.7,29.67,East,90,2.0,2.0,95,-99.99,,,0.07,0.00,VWS V14.01,2013-02-12 00:15:00,
2013-02-11 19:20:00,41.0,39.7,29.67,NE,45,3.0,4.0,95,-99.99,,,0.07,0.00,VWS V14.01,2013-02-12 00:20:00,
2013-02-11 19:25:00,41.0,39.7,29.67,NE,45,3.0,3.0,95,-99.99,,,0.07,0.00,VWS V14.01,2013-02-12 00:25:00,
2013-02-11 19:30:00,41.0,40.0,29.71,West,270,39.0,39.0,96,-99.99,,,0.07,0.00,VWS V14.01,2013-02-12 00:30:00,
2013-02-11 19:35:00,40.0,39.2,29.72,WSW,248,16.0,19.0,97,-99.99,,,0.07,0.00,VWS V14.01,2013-02-12 00:35:00,
2013-02-11 19:40:00,41.0,40.7,29.72,WSW,248,17.0,19.0,99,-99.99,,,0.07,0.00,VWS V14.01,2013-02-12 00:40:00,
2013-02-11 19:45:00,42.0,42.0,29.72,WSW,248,10.0,16.0,100,-99.99,,,0.07,0.00,VWS V14.01,2013-02-12 00:45:00,
2013-02-11 19:50:00,42.0,42.0,29.73,West,270,11.0,15.0,100,-99.99,,,0.07,0.00,VWS V14.01,2013-02-12 00:50:00,
2013-02-11 19:55:00,41.0,41.0,29.73,West,270,11.0,14.0,100,-99.99,,,0.07,0.00,VWS V14.01,2013-02-12 00:55:00,
2013-02-11 20:00:00,41.0,41.0,29.73,WSW,248,6.0,7.0,100,-99.99,,,0.07,0.00,VWS V14.01,2013-02-12 01:00:00,
2013-02-11 20:05:00,41.0,41.0,29.73,WSW,248,6.0,6.0,100,-99.99,,,0.07,0.00,VWS V14.01,2013-02-12 01:05:00,
2013-02-11 20:10:00,41.0,41.0,29.73,SSW,202,2.0,5.0,100,-99.99,,,0.07,0.00,VWS V14.01,2013-02-12 01:10:00,
2013-02-11 20:15:00,41.0,41.0,29.74,SSW,202,4.0,6.0,100,-99.99,,,0.07,0.00,VWS V14.01,2013-02-12 01:15:00,
2013-02-11 20:20:00,42.0,42.0,29.73,South,180,3.0,4.0,100,-99.99,,,0.07,0.00,VWS V14.01,2013-02-12 01:20:00,
2013-02-11 20:25:00,42.0,42.0,29.74,SSW,202,3.0,3.0,100,-99.99,,,0.07,0.00,VWS V14.01,2013-02-12 01:25:00,
2013-02-11 20:30:00,41.0,41.0,29.73,SW,225,3.0,6.0,100,-99.99,,,0.07,0.00,VWS V14.01,2013-02-12 01:30:00,
2013-02-11 20:35:00,41.0,41.0,29.74,SSW,202,5.0,6.0,100,-99.99,,,0.07,0.00,VWS V14.01,2013-02-12 01:35:00,
2013-02-11 20:40:00,41.0,41.0,29.73,SW,225,3.0,4.0,100,-99.99,,,0.07,0.00,VWS V14.01,2013-02-12 01:40:00,
2013-02-11 20:45:00,41.0,41.0,29.74,SW,225,4.0,4.0,100,-99.99,,,0.07,0.00,VWS V14.01,2013-02-12 01:45:00,
2013-02-11 20:50:00,41.0,41.0,29.74,SW,225,4.0,5.0,100,-99.99,,,0.07,0.00,VWS V14.01,2013-02-12 01:50:00,
2013-02-11 20:55:00,41.0,41.0,29.74,SSW,202,7.0,9.0,100,-99.99,,,0.07,0.00,VWS V14.01,2013-02-12 01:55:00,
2013-02-11 21:00:00,41.0,41.0,29.75,SSW,202,6.0,7.0,100,-99.99,,,0.07,0.00,VWS V14.01,2013-02-12 02:00:00,
2013-02-11 21:05:00,41.0,41.0,29.75,SSW,202,6.0,6.0,100,-99.99,,,0.07,0.00,VWS V14.01,2013-02-12 02:05:00,
2013-02-11 21:10:00,41.0,41.0,29.75,SW,225,8.0,8.0,100,-99.99,,,0.07,0.00,VWS V14.01,2013-02-12 02:10:00,
2013-02-11 21:15:00,40.0,40.0,29.75,SW,225,7.0,7.0,100,-99.99,,,0.07,0.00,VWS V14.01,2013-02-12 02:15:00,
2013-02-11 21:20:00,40.0,40.0,29.75,SSW,202,3.0,5.0,100,-99.99,,,0.07,0.00,VWS V14.01,2013-02-12 02:20:00,
2013-02-11 21:25:00,40.0,40.0,29.76,SW,225,9.0,9.0,100,-99.99,,,0.07,0.00,VWS V14.01,2013-02-12 02:25:00,
2013-02-11 21:30:00,40.0,40.0,29.76,WSW,248,5.0,6.0,100,-99.99,,,0.07,0.00,VWS V14.01,2013-02-12 02:30:00,
2013-02-11 21:35:00,39.0,39.0,29.76,West,270,6.0,7.0,100,-99.99,,,0.07,0.00,VWS V14.01,2013-02-12 02:35:00,
2013-02-11 21:40:00,39.0,39.0,29.76,WSW,248,9.0,11.0,100,-99.99,,,0.07,0.00,VWS V14.01,2013-02-12 02:40:00,
2013-02-11 21:45:00,40.0,40.0,29.77,WSW,248,5.0,7.0,100,-99.99,,,0.07,0.00,VWS V14.01,2013-02-12 02:45:00,
2013-02-11 21:50:00,40.0,40.0,29.77,ENE,68,3.0,4.0,100,-99.99,,,0.07,0.00,VWS V14.01,2013-02-12 02:50:00,
2013-02-11 21:55:00,39.0,39.0,29.77,ESE,112,3.0,4.0,100,-99.99,,,0.07,0.00,VWS V14.01,2013-02-12 02:55:00,
2013-02-11 22:00:00,39.0,39.0,29.77,South,180,3.0,3.0,100,-99.99,,,0.07,0.00,VWS V14.01,2013-02-12 03:00:00,
2013-02-11 22:05:00,39.0,39.0,29.77,SSE,158,3.0,5.0,100,-99.99,,,0.07,0.00,VWS V14.01,2013-02-12 03:05:00,
2013-02-11 22:10:00,40.0,40.0,29.77,SSW,202,7.0,7.0,100,-99.99,,,0.07,0.00,VWS V14.01,2013-02-12 03:10:00,
2013-02-11 22:15:00,39.0,39.0,29.77,South,180,4.0,6.0,100,-99.99,,,0.07,0.00,VWS V14.01,2013-02-12 03:15:00,
2013-02-11 22:20:00,39.0,39.0,29.77,West,270,6.0,8.0,100,-99.99,,,0.07,0.00,VWS V14.01,2013-02-12 03:20:00,
2013-02-11 22:25:00,39.0,39.0,29.78,SSW,202,9.0,9.0,100,-99.99,,,0.07,0.00,VWS V14.01,2013-02-12 03:25:00,
2013-02-11 22:30:00,40.0,40.0,29.77,SSW,202,14.0,14.0,100,-99.99,,,0.07,0.00,VWS V14.01,2013-02-12 03:30:00,
2013-02-11 22:35:00,40.0,40.0,29.77,SW,225,13.0,19.0,100,-99.99,,,0.07,0.00,VWS V14.01,2013-02-12 03:35:00,
2013-02-11 22:40:00,41.0,39.1,29.77,SW,225,13.0,18.0,93,-99.99,,,0.07,0.00,VWS V14.01,2013-02-12 03:40:00,
2013-02-11 22:45:00,41.0,37.1,29.77,SW,225,24.0,27.0,86,-99.99,,,0.07,0.00,VWS V14.01,2013-02-12 03:45:00,
2013-02-11 22:50:00,42.0,35.3,29.77,SW,225,17.0,17.0,77,-99.99,,,0.07,0.00,VWS V14.01,2013-02-12 03:50:00,
2013-02-11 22:55:00,41.0,32.7,29.77,SW,225,19.0,19.0,72,-99.99,,,0.07,0.00,VWS V14.01,2013-02-12 03:55:00,
2013-02-11 23:00:00,41.0,32.7,29.77,SSW,202,15.0,26.0,72,-99.99,,,0.07,0.00,VWS V14.01,2013-02-12 04:00:00,
2013-02-11 23:05:00,41.0,32.0,29.77,SSW,202,8.0,12.0,70,-99.99,,,0.07,0.00,VWS V14.01,2013-02-12 04:05:00,
2013-02-11 23:10:00,41.0,30.9,29.77,SSW,202,17.0,20.0,67,-99.99,,,0.07,0.00,VWS V14.01,2013-02-12 04:10:00,
2013-02-11 23:15:00,41.0,30.5,29.77,SW,225,20.0,20.0,66,-99.99,,,0.07,0.00,VWS V14.01,2013-02-12 04:15:00,
2013-02-11 23:20:00,41.0,30.1,29.77,SW,225,11.0,12.0,65,-99.99,,,0.07,0.00,VWS V14.01,2013-02-12 04:20:00,
2013-02-11 23:25:00,41.0,29.8,29.77,SSW,202,13.0,17.0,64,-99.99,,,0.07,0.00,VWS V14.01,2013-02-12 04:25:00,
2013-02-11 23:30:00,41.0,29.8,29.77,SSW,202,11.0,12.0,64,-99.99,,,0.07,0.00,VWS V14.01,2013-02-12 04:30:00,
2013-02-11 23:35:00,40.0,28.8,29.77,SSW,202,15.0,16.0,64,-99.99,,,0.07,0.00,VWS V14.01,2013-02-12 04:35:00,
2013-02-11 23:40:00,41.0,29.4,29.77,SSW,202,11.0,20.0,63,-99.99,,,0.07,0.00,VWS V14.01,2013-02-12 04:40:00,
2013-02-11 23:45:00,40.0,28.8,29.77,SW,225,10.0,17.0,64,-99.99,,,0.07,0.00,VWS V14.01,2013-02-12 04:45:00,
2013-02-11 23:50:00,40.0,28.8,29.77,SSW,202,11.0,11.0,64,-99.99,,,0.07,0.00,VWS V14.01,2013-02-12 04:50:00,
2013-02-11 23:55:00,40.0,28.8,29.78,WSW,248,7.0,14.0,64,-99.99,,,0.07,0.00,VWS V14.01,2013-02-12 04:55:00,